createdAt,value
2017-01-16T00:00:38.324Z,0.57
2017-01-16T00:01:44.500Z,0.61
2017-01-16T00:02:49.705Z,0.57
2017-01-16T00:03:53.977Z,0.58
2017-01-16T00:04:59.176Z,0.67
2017-01-16T00:06:04.317Z,0.67
2017-01-16T00:07:08.522Z,0.58
2017-01-16T00:08:14.787Z,0.57
2017-01-16T00:09:20.949Z,0.64
2017-01-16T00:10:27.117Z,0.65
2017-01-16T00:11:31.337Z,0.52
2017-01-16T00:12:36.536Z,0.61
2017-01-16T00:13:40.834Z,0.58
2017-01-16T00:14:46.994Z,0.53
2017-01-16T00:15:53.155Z,0.48
2017-01-16T00:16:59.320Z,0.46
2017-01-16T00:18:05.490Z,0.38
2017-01-16T00:19:11.651Z,0.36
2017-01-16T00:20:17.844Z,0.31
2017-01-16T00:21:22.082Z,0.3
2017-01-16T00:22:27.275Z,0.27
2017-01-16T00:23:33.439Z,0.18
2017-01-16T00:24:36.728Z,0.18
2017-01-16T00:25:39.955Z,0.3
2017-01-16T00:26:46.129Z,0.15
2017-01-16T00:27:51.328Z,0.18
2017-01-16T00:28:56.546Z,0.16
2017-01-16T00:30:02.723Z,0.21
2017-01-16T00:31:07.964Z,0.21
2017-01-16T00:32:13.165Z,0.13
2017-01-16T00:33:18.715Z,0.16
2017-01-16T00:34:24.919Z,0.1
2017-01-16T00:35:31.066Z,0.05
2017-01-16T00:36:37.214Z,0.02
2017-01-16T00:37:42.389Z,0.07
2017-01-16T00:38:46.595Z,0.1
2017-01-16T00:39:51.845Z,0.07
2017-01-16T00:40:58.027Z,0.07
2017-01-16T00:42:04.209Z,-0.12
2017-01-16T00:43:10.383Z,0.02
2017-01-16T00:44:15.584Z,-0.04
2017-01-16T00:45:21.746Z,-0.12
2017-01-16T00:46:24.985Z,-0.15
2017-01-16T00:47:30.194Z,-0.11
2017-01-16T00:48:35.370Z,-0.11
2017-01-16T00:49:39.619Z,-0.06
2017-01-16T00:50:44.805Z,-0.12
2017-01-16T00:51:50.003Z,-0.06
2017-01-16T00:52:55.209Z,-0.04
2017-01-16T00:53:59.521Z,-0.06
2017-01-16T00:55:05.695Z,-0.13
2017-01-16T00:56:11.888Z,-0.05
2017-01-16T00:57:18.018Z,-0.15
2017-01-16T00:58:23.188Z,-0.04
2017-01-16T00:59:28.386Z,-0.11
2017-01-16T01:00:32.721Z,-0.09
2017-01-16T01:01:38.896Z,-0.09
2017-01-16T01:02:45.059Z,-0.15
2017-01-16T01:03:50.255Z,-0.19
2017-01-16T01:04:54.483Z,-0.18
2017-01-16T01:05:59.679Z,-0.23
2017-01-16T01:07:02.945Z,-0.24
2017-01-16T01:08:08.157Z,-0.42
2017-01-16T01:09:13.323Z,-0.33
2017-01-16T01:10:18.492Z,-0.44
2017-01-16T01:11:20.855Z,-0.47
2017-01-16T01:12:26.017Z,-0.48
2017-01-16T01:13:30.241Z,-0.45
2017-01-16T01:14:35.434Z,-0.6
2017-01-16T01:15:41.592Z,-0.68
2017-01-16T01:16:45.881Z,-0.68
2017-01-16T01:17:50.106Z,-0.72
2017-01-16T01:18:56.301Z,-0.7
2017-01-16T01:20:01.505Z,-0.77
2017-01-16T01:21:06.713Z,-0.77
2017-01-16T01:22:11.908Z,-0.66
2017-01-16T01:23:17.104Z,-0.63
2017-01-16T01:24:23.297Z,-0.66
2017-01-16T01:25:29.478Z,-0.75
2017-01-16T01:26:35.693Z,-0.81
2017-01-16T01:27:39.900Z,-0.77
2017-01-16T01:28:45.108Z,-0.83
2017-01-16T01:29:49.351Z,-0.8
2017-01-16T01:30:54.545Z,-0.8
2017-01-16T01:31:59.748Z,-0.77
2017-01-16T01:33:05.946Z,-0.83
2017-01-16T01:34:11.113Z,-0.87
2017-01-16T01:35:17.268Z,-0.91
2017-01-16T01:36:22.437Z,-0.95
2017-01-16T01:37:27.632Z,-0.92
2017-01-16T01:38:32.824Z,-0.91
2017-01-16T01:39:37.067Z,-1.02
2017-01-16T01:40:42.256Z,-1.05
2017-01-16T01:41:48.493Z,-0.94
2017-01-16T01:42:53.688Z,-1
2017-01-16T01:43:59.854Z,-0.97
2017-01-16T01:45:04.057Z,-1.05
2017-01-16T01:46:08.295Z,-1.06
2017-01-16T01:47:13.457Z,-1.06
2017-01-16T01:48:17.697Z,-1.09
2017-01-16T01:49:23.869Z,-1.1
2017-01-16T01:50:28.215Z,-1.1
2017-01-16T01:51:34.388Z,-1.1
2017-01-16T01:52:39.592Z,-1.1
2017-01-16T01:53:43.779Z,-1.07
2017-01-16T01:54:47.978Z,-1.06
2017-01-16T01:55:53.247Z,-1.07
2017-01-16T01:56:59.414Z,-1.13
2017-01-16T01:58:05.573Z,-1.15
2017-01-16T01:59:09.779Z,-1.13
2017-01-16T02:00:13.074Z,-1.17
2017-01-16T02:01:18.279Z,-1.13
2017-01-16T02:02:23.535Z,-1.2
2017-01-16T02:03:28.724Z,-1.21
2017-01-16T02:04:33.932Z,-1.23
2017-01-16T02:05:39.140Z,-1.24
2017-01-16T02:06:44.335Z,-1.3
2017-01-16T02:07:50.504Z,-1.38
2017-01-16T02:08:56.687Z,-1.25
2017-01-16T02:10:01.862Z,-1.27
2017-01-16T02:11:07.206Z,-1.24
2017-01-16T02:12:12.393Z,-1.21
2017-01-16T02:13:16.630Z,-1.15
2017-01-16T02:14:21.862Z,-1.12
2017-01-16T02:15:26.034Z,-1.1
2017-01-16T02:16:31.219Z,-1.09
2017-01-16T02:17:36.427Z,-0.97
2017-01-16T02:18:42.624Z,-0.94
2017-01-16T02:19:48.757Z,-0.8
2017-01-16T02:20:52.027Z,-0.81
2017-01-16T02:21:58.200Z,-0.72
2017-01-16T02:23:04.369Z,-0.69
2017-01-16T02:24:10.526Z,-0.65
2017-01-16T02:25:16.706Z,-0.66
2017-01-16T02:26:22.861Z,-0.54
2017-01-16T02:27:27.068Z,-0.54
2017-01-16T02:28:32.260Z,-0.45
2017-01-16T02:29:36.522Z,-0.34
2017-01-16T02:30:41.750Z,-0.34
2017-01-16T02:31:47.915Z,-0.39
2017-01-16T02:32:52.144Z,-0.34
2017-01-16T02:33:56.394Z,-0.34
2017-01-16T02:35:02.258Z,-0.23
2017-01-16T02:36:08.425Z,-0.24
2017-01-16T02:37:14.590Z,-0.24
2017-01-16T02:38:20.763Z,-0.18
2017-01-16T02:39:25.963Z,-0.16
2017-01-16T02:40:31.157Z,-0.08
2017-01-16T02:41:34.394Z,-0.11
2017-01-16T02:42:37.746Z,-0.06
2017-01-16T02:43:43.900Z,-0.05
2017-01-16T02:44:49.091Z,-0.11
2017-01-16T02:45:54.258Z,-0.05
2017-01-16T02:47:00.426Z,0.03
2017-01-16T02:48:06.585Z,0.09
2017-01-16T02:49:12.763Z,0.02
2017-01-16T02:50:17.966Z,0.06
2017-01-16T02:51:23.219Z,0.09
2017-01-16T02:52:29.601Z,0.06
2017-01-16T02:53:36.162Z,0.03
2017-01-16T02:54:41.337Z,0.07
2017-01-16T02:55:45.537Z,0.09
2017-01-16T02:56:50.704Z,0.23
2017-01-16T02:57:55.904Z,0.2
2017-01-16T02:59:02.192Z,0.25
2017-01-16T03:00:07.534Z,0.24
2017-01-16T03:01:13.731Z,0.3
2017-01-16T03:02:19.865Z,0.24
2017-01-16T03:03:25.386Z,0.25
2017-01-16T03:04:31.554Z,0.1
2017-01-16T03:05:34.796Z,0.2
2017-01-16T03:06:40.989Z,0.23
2017-01-16T03:07:47.141Z,0.2
2017-01-16T03:08:52.346Z,0.12
2017-01-16T03:09:58.508Z,0.24
2017-01-16T03:11:04.686Z,0.24
2017-01-16T03:12:10.852Z,0.28
2017-01-16T03:13:17.113Z,0.23
2017-01-16T03:14:22.321Z,0.33
2017-01-16T03:15:28.486Z,0.27
2017-01-16T03:16:33.654Z,0.23
2017-01-16T03:17:37.947Z,0.24
2017-01-16T03:18:43.118Z,0.25
2017-01-16T03:19:49.283Z,0.3
2017-01-16T03:20:55.447Z,0.23
2017-01-16T03:21:59.700Z,0.27
2017-01-16T03:23:03.934Z,0.25
2017-01-16T03:24:10.103Z,0.12
2017-01-16T03:25:16.271Z,0.2
2017-01-16T03:26:19.535Z,0.21
2017-01-16T03:27:24.873Z,0.2
2017-01-16T03:28:31.000Z,0.12
2017-01-16T03:29:34.236Z,0.21
2017-01-16T03:30:39.431Z,0.23
2017-01-16T03:31:44.621Z,0.13
2017-01-16T03:32:50.789Z,0.12
2017-01-16T03:33:56.949Z,0.07
2017-01-16T03:35:03.269Z,0.13
2017-01-16T03:36:09.496Z,0.06
2017-01-16T03:37:14.614Z,0.09
2017-01-16T03:38:18.842Z,0.07
2017-01-16T03:39:22.075Z,0.1
2017-01-16T03:40:28.242Z,0.07
2017-01-16T03:41:33.405Z,0.07
2017-01-16T03:42:39.565Z,0.03
2017-01-16T03:43:44.755Z,0.1
2017-01-16T03:44:49.975Z,0.1
2017-01-16T03:45:55.138Z,0.2
2017-01-16T03:46:58.369Z,0.23
2017-01-16T03:48:03.534Z,0.2
2017-01-16T03:49:07.751Z,0.16
2017-01-16T03:50:12.957Z,0.13
2017-01-16T03:51:19.183Z,0.2
2017-01-16T03:52:24.675Z,0.13
2017-01-16T03:53:30.843Z,0.13
2017-01-16T03:54:35.054Z,0.2
2017-01-16T03:55:40.223Z,0.13
2017-01-16T03:56:44.430Z,0.21
2017-01-16T03:57:49.631Z,0.21
2017-01-16T03:58:54.825Z,0.27
2017-01-16T04:00:01.057Z,0.3
2017-01-16T04:01:07.229Z,0.24
2017-01-16T04:02:11.538Z,0.28
2017-01-16T04:03:17.693Z,0.25
2017-01-16T04:04:23.861Z,0.23
2017-01-16T04:05:30.133Z,0.24
2017-01-16T04:06:35.340Z,0.3
2017-01-16T04:07:39.567Z,0.31
2017-01-16T04:08:44.763Z,0.27
2017-01-16T04:09:50.069Z,0.28
2017-01-16T04:10:56.247Z,0.25
2017-01-16T04:11:59.590Z,0.25
2017-01-16T04:13:05.756Z,0.12
2017-01-16T04:14:09.965Z,0.15
2017-01-16T04:15:15.187Z,0.23
2017-01-16T04:16:19.421Z,0.12
2017-01-16T04:17:23.635Z,0.25
2017-01-16T04:18:28.843Z,0.18
2017-01-16T04:19:33.028Z,0.23
2017-01-16T04:20:39.192Z,0.21
2017-01-16T04:21:43.421Z,0.23
2017-01-16T04:22:48.621Z,0.3
2017-01-16T04:23:53.794Z,0.21
2017-01-16T04:24:59.956Z,0.1
2017-01-16T04:26:05.146Z,0.03
2017-01-16T04:27:11.388Z,-0.01
2017-01-16T04:28:16.711Z,0.09
2017-01-16T04:29:21.916Z,0.03
2017-01-16T04:30:28.088Z,0.03
2017-01-16T04:31:31.345Z,0.05
2017-01-16T04:32:36.551Z,0.02
2017-01-16T04:33:42.719Z,0.06
2017-01-16T04:34:46.922Z,0.1
2017-01-16T04:35:53.088Z,-0.05
2017-01-16T04:36:58.281Z,0.02
2017-01-16T04:38:03.515Z,0.03
2017-01-16T04:39:07.695Z,0.05
2017-01-16T04:40:11.928Z,0.05
2017-01-16T04:41:18.084Z,0.09
2017-01-16T04:42:23.286Z,0
2017-01-16T04:43:29.441Z,0.12
2017-01-16T04:44:33.662Z,0.1
2017-01-16T04:45:39.876Z,0.21
2017-01-16T04:46:44.062Z,0.06
2017-01-16T04:47:49.266Z,0.16
2017-01-16T04:48:55.527Z,0.21
2017-01-16T04:50:01.735Z,0.06
2017-01-16T04:51:05.928Z,0.06
2017-01-16T04:52:11.136Z,0.02
2017-01-16T04:53:15.372Z,0.07
2017-01-16T04:54:20.573Z,0.13
2017-01-16T04:55:26.740Z,0.12
2017-01-16T04:56:30.993Z,0.23
2017-01-16T04:57:36.173Z,0.2
2017-01-16T04:58:42.399Z,0.2
2017-01-16T04:59:46.608Z,0.16
2017-01-16T05:00:50.928Z,0.16
2017-01-16T05:01:57.084Z,0.2
2017-01-16T05:03:03.301Z,0.23
2017-01-16T05:04:07.508Z,0.24
2017-01-16T05:05:13.666Z,0.23
2017-01-16T05:06:18.864Z,0.24
2017-01-16T05:07:23.086Z,0.24
2017-01-16T05:08:29.255Z,0.24
2017-01-16T05:09:32.485Z,0.25
2017-01-16T05:10:37.678Z,0.3
2017-01-16T05:11:41.879Z,0.42
2017-01-16T05:12:47.071Z,0.25
2017-01-16T05:13:53.242Z,0.27
2017-01-16T05:14:59.418Z,0.27
2017-01-16T05:16:04.609Z,0.18
2017-01-16T05:17:08.847Z,0.24
2017-01-16T05:18:13.138Z,0.23
2017-01-16T05:19:17.367Z,0.16
2017-01-16T05:20:23.570Z,0.27
2017-01-16T05:21:29.711Z,0.25
2017-01-16T05:22:33.927Z,0.23
2017-01-16T05:23:39.100Z,0.34
2017-01-16T05:24:44.296Z,0.31
2017-01-16T05:25:49.485Z,0.25
2017-01-16T05:26:55.646Z,0.38
2017-01-16T05:27:59.958Z,0.33
2017-01-16T05:29:05.176Z,0.28
2017-01-16T05:30:10.372Z,0.28
2017-01-16T05:31:15.615Z,0.28
2017-01-16T05:32:21.775Z,0.33
2017-01-16T05:33:26.965Z,0.43
2017-01-16T05:34:32.158Z,0.46
2017-01-16T05:35:38.324Z,0.41
2017-01-16T05:36:43.521Z,0.46
2017-01-16T05:37:47.722Z,0.36
2017-01-16T05:38:52.922Z,0.36
2017-01-16T05:39:59.116Z,0.42
2017-01-16T05:41:05.267Z,0.42
2017-01-16T05:42:10.429Z,0.34
2017-01-16T05:43:15.621Z,0.36
2017-01-16T05:44:21.793Z,0.36
2017-01-16T05:45:26.004Z,0.28
2017-01-16T05:46:32.173Z,0.28
2017-01-16T05:47:37.377Z,0.36
2017-01-16T05:48:41.630Z,0.39
2017-01-16T05:49:46.827Z,0.34
2017-01-16T05:50:52.988Z,0.38
2017-01-16T05:51:58.153Z,0.28
2017-01-16T05:53:01.428Z,0.36
2017-01-16T05:54:07.583Z,0.33
2017-01-16T05:55:13.784Z,0.3
2017-01-16T05:56:18.943Z,0.3
2017-01-16T05:57:23.302Z,0.25
2017-01-16T05:58:28.505Z,0.25
2017-01-16T05:59:33.753Z,0.31
2017-01-16T06:00:38.104Z,0.24
2017-01-16T06:01:42.368Z,0.21
2017-01-16T06:02:47.504Z,0.3
2017-01-16T06:03:52.828Z,0.3
2017-01-16T06:04:58.984Z,0.3
2017-01-16T06:06:05.159Z,0.38
2017-01-16T06:07:08.414Z,0.39
2017-01-16T06:08:13.631Z,0.42
2017-01-16T06:09:17.849Z,0.43
2017-01-16T06:10:23.019Z,0.43
2017-01-16T06:11:29.181Z,0.42
2017-01-16T06:12:34.352Z,0.45
2017-01-16T06:14:45.696Z,0.39
2017-01-16T06:15:51.005Z,0.41
2017-01-16T06:16:57.169Z,0.38
2017-01-16T06:18:02.085Z,0.46
2017-01-16T06:19:07.302Z,0.39
2017-01-16T06:20:13.456Z,0.36
2017-01-16T06:21:17.654Z,0.43
2017-01-16T06:22:22.888Z,0.28
2017-01-16T06:23:28.044Z,0.31
2017-01-16T06:24:34.209Z,0.33
2017-01-16T06:25:38.452Z,0.3
2017-01-16T06:26:43.639Z,0.31
2017-01-16T06:27:47.840Z,0.3
2017-01-16T06:28:52.074Z,0.3
2017-01-16T06:29:57.293Z,0.38
2017-01-16T06:31:00.585Z,0.25
2017-01-16T06:32:06.744Z,0.33
2017-01-16T06:33:11.942Z,0.28
2017-01-16T06:34:17.153Z,0.25
2017-01-16T06:35:23.311Z,0.36
2017-01-16T06:36:28.513Z,0.28
2017-01-16T06:37:31.771Z,0.38
2017-01-16T06:38:37.921Z,0.28
2017-01-16T06:39:43.131Z,0.28
2017-01-16T06:40:49.289Z,0.31
2017-01-16T06:41:54.494Z,0.3
2017-01-16T06:43:00.666Z,0.33
2017-01-16T06:44:06.831Z,0.28
2017-01-16T06:45:13.005Z,0.39
2017-01-16T06:46:18.179Z,0.38
2017-01-16T06:47:23.731Z,0.41
2017-01-16T06:48:29.896Z,0.43
2017-01-16T06:49:35.088Z,0.45
2017-01-16T06:50:41.025Z,0.52
2017-01-16T06:51:46.172Z,0.38
2017-01-16T06:52:52.341Z,0.49
2017-01-16T06:53:57.514Z,0.46
2017-01-16T06:55:03.682Z,0.43
2017-01-16T06:56:07.887Z,0.41
2017-01-16T06:57:13.081Z,0.42
2017-01-16T06:58:15.506Z,0.42
2017-01-16T06:59:18.783Z,0.42
2017-01-16T07:00:24.015Z,0.48
2017-01-16T07:01:28.185Z,0.48
2017-01-16T07:02:34.371Z,0.43
2017-01-16T07:03:40.531Z,0.42
2017-01-16T07:04:45.731Z,0.43
2017-01-16T07:05:51.894Z,0.51
2017-01-16T07:06:58.176Z,0.46
2017-01-16T07:08:04.338Z,0.42
2017-01-16T07:09:08.568Z,0.42
2017-01-16T07:10:14.732Z,0.43
2017-01-16T07:11:19.920Z,0.49
2017-01-16T07:12:25.121Z,0.42
2017-01-16T07:13:30.317Z,0.49
2017-01-16T07:14:35.516Z,0.43
2017-01-16T07:15:38.745Z,0.42
2017-01-16T07:16:43.959Z,0.36
2017-01-16T07:17:50.098Z,0.36
2017-01-16T07:18:56.269Z,0.36
2017-01-16T07:20:01.522Z,0.36
2017-01-16T07:21:06.727Z,0.42
2017-01-16T07:22:12.886Z,0.31
2017-01-16T07:23:19.140Z,0.36
2017-01-16T07:24:24.301Z,0.38
2017-01-16T07:25:29.496Z,0.33
2017-01-16T07:26:35.664Z,0.33
2017-01-16T07:27:41.838Z,0.33
2017-01-16T07:28:47.004Z,0.38
2017-01-16T07:29:53.187Z,0.36
2017-01-16T07:30:58.400Z,0.43
2017-01-16T07:32:04.393Z,0.33
2017-01-16T07:33:09.589Z,0.38
2017-01-16T07:34:12.829Z,0.36
2017-01-16T07:36:25.176Z,0.38
2017-01-16T07:37:31.342Z,0.42
2017-01-16T07:38:36.537Z,0.45
2017-01-16T07:39:41.735Z,0.45
2017-01-16T07:40:48.010Z,0.43
2017-01-16T07:41:53.227Z,0.38
2017-01-16T07:42:58.442Z,0.36
2017-01-16T07:44:02.681Z,0.38
2017-01-16T07:45:08.947Z,0.41
2017-01-16T07:46:13.172Z,0.31
2017-01-16T07:47:18.413Z,0.28
2017-01-16T07:48:24.551Z,0.28
2017-01-16T07:49:29.798Z,0.31
2017-01-16T07:50:34.928Z,0.41
2017-01-16T07:51:41.097Z,0.41
2017-01-16T07:52:47.270Z,0.42
2017-01-16T07:53:53.457Z,0.49
2017-01-16T07:54:59.717Z,0.42
2017-01-16T07:56:04.906Z,0.46
2017-01-16T07:57:10.110Z,0.36
2017-01-16T07:58:16.280Z,0.46
2017-01-16T07:59:21.475Z,0.46
2017-01-16T08:00:26.671Z,0.6
2017-01-16T08:01:30.912Z,0.67
2017-01-16T08:02:36.094Z,0.58
2017-01-16T08:03:41.291Z,0.61
2017-01-16T08:04:46.456Z,0.6
2017-01-16T08:05:52.616Z,0.57
2017-01-16T08:06:57.817Z,0.53
2017-01-16T08:08:03.647Z,0.6
2017-01-16T08:09:09.823Z,0.67
2017-01-16T08:10:14.022Z,0.72
2017-01-16T08:11:20.192Z,0.62
2017-01-16T08:12:26.362Z,0.64
2017-01-16T08:13:32.626Z,0.65
2017-01-16T08:14:37.817Z,0.68
2017-01-16T08:15:44.019Z,0.65
2017-01-16T08:16:50.172Z,0.6
2017-01-16T08:17:56.329Z,0.67
2017-01-16T08:19:02.497Z,0.72
2017-01-16T08:20:08.653Z,0.71
2017-01-16T08:21:14.829Z,0.72
2017-01-16T08:22:19.059Z,0.76
2017-01-16T08:23:25.352Z,0.7
2017-01-16T08:24:31.342Z,0.78
2017-01-16T08:25:35.576Z,0.78
2017-01-16T08:26:39.814Z,0.82
2017-01-16T08:27:46.000Z,0.71
2017-01-16T08:28:50.204Z,0.8
2017-01-16T08:29:56.367Z,0.82
2017-01-16T08:31:02.539Z,0.83
2017-01-16T08:32:07.751Z,0.85
2017-01-16T08:33:12.944Z,0.79
2017-01-16T08:34:18.106Z,0.82
2017-01-16T08:35:24.268Z,0.9
2017-01-16T08:36:30.431Z,0.89
2017-01-16T08:37:36.608Z,0.97
2017-01-16T08:38:41.807Z,1.01
2017-01-16T08:39:47.972Z,0.97
2017-01-16T08:40:54.136Z,1.01
2017-01-16T08:41:58.438Z,1
2017-01-16T08:43:03.643Z,1.07
2017-01-16T08:44:09.411Z,1.1
2017-01-16T08:45:11.709Z,1.14
2017-01-16T08:46:17.883Z,1.22
2017-01-16T08:47:24.104Z,1.22
2017-01-16T08:48:30.270Z,1.21
2017-01-16T08:49:36.436Z,1.28
2017-01-16T08:50:40.641Z,1.24
2017-01-16T08:51:45.843Z,1.32
2017-01-16T08:52:50.786Z,1.32
2017-01-16T08:53:55.985Z,1.39
2017-01-16T08:55:02.205Z,1.33
2017-01-16T08:56:08.383Z,1.33
2017-01-16T08:57:13.593Z,1.28
2017-01-16T08:58:18.793Z,1.26
2017-01-16T08:59:24.952Z,1.33
2017-01-16T09:00:31.150Z,1.4
2017-01-16T09:01:35.408Z,1.4
2017-01-16T09:02:41.572Z,1.39
2017-01-16T09:03:45.804Z,1.42
2017-01-16T09:04:51.004Z,1.37
2017-01-16T09:05:56.286Z,1.4
2017-01-16T09:07:00.519Z,1.5
2017-01-16T09:08:06.707Z,1.55
2017-01-16T09:09:13.091Z,1.68
2017-01-16T09:10:17.326Z,1.6
2017-01-16T09:11:23.499Z,1.75
2017-01-16T09:12:29.703Z,1.68
2017-01-16T09:13:35.890Z,1.72
2017-01-16T09:14:41.165Z,1.68
2017-01-16T09:15:46.251Z,1.79
2017-01-16T09:16:52.611Z,1.82
2017-01-16T09:17:57.810Z,1.78
2017-01-16T09:19:03.980Z,1.8
2017-01-16T09:20:09.184Z,1.8
2017-01-16T09:21:13.438Z,1.68
2017-01-16T09:22:19.687Z,1.73
2017-01-16T09:23:25.841Z,1.73
2017-01-16T09:24:32.021Z,1.75
2017-01-16T09:25:38.188Z,1.83
2017-01-16T09:26:42.478Z,1.8
2017-01-16T09:27:47.681Z,1.9
2017-01-16T09:28:52.879Z,2.01
2017-01-16T09:29:58.085Z,2.04
2017-01-16T09:31:03.261Z,2.08
2017-01-16T09:32:09.432Z,2.02
2017-01-16T09:33:15.619Z,2.27
2017-01-16T09:34:20.831Z,2.33
2017-01-16T09:35:26.994Z,2.59
2017-01-16T09:36:32.207Z,2.97
2017-01-16T09:37:37.401Z,3.58
2017-01-16T09:38:43.565Z,3.94
2017-01-16T09:39:48.760Z,4.12
2017-01-16T09:40:53.961Z,4.16
2017-01-16T09:41:59.834Z,4.15
2017-01-16T09:43:04.057Z,4.21
2017-01-16T09:44:09.264Z,4.08
2017-01-16T09:45:12.499Z,4.03
2017-01-16T09:46:17.761Z,3.98
2017-01-16T09:47:21.987Z,4.04
2017-01-16T09:48:27.197Z,3.96
2017-01-16T09:49:31.408Z,4.01
2017-01-16T09:50:36.662Z,4.08
2017-01-16T09:51:40.863Z,4.03
2017-01-16T09:52:46.093Z,4.01
2017-01-16T09:53:52.264Z,3.96
2017-01-16T09:54:57.511Z,3.8
2017-01-16T09:56:01.748Z,3.76
2017-01-16T09:57:06.940Z,3.75
2017-01-16T09:58:11.176Z,3.71
2017-01-16T09:59:17.348Z,3.61
2017-01-16T10:00:22.547Z,3.71
2017-01-16T10:01:28.735Z,3.82
2017-01-16T10:02:34.007Z,3.71
2017-01-16T10:03:39.235Z,3.79
2017-01-16T10:04:44.414Z,3.71
2017-01-16T10:05:49.615Z,3.82
2017-01-16T10:06:54.813Z,3.86
2017-01-16T10:07:59.020Z,3.83
2017-01-16T10:09:04.226Z,3.89
2017-01-16T10:10:10.434Z,3.82
2017-01-16T10:11:16.599Z,3.71
2017-01-16T10:12:20.828Z,3.7
2017-01-16T10:13:25.118Z,3.65
2017-01-16T10:14:31.382Z,3.68
2017-01-16T10:15:35.564Z,3.83
2017-01-16T10:16:41.725Z,3.79
2017-01-16T10:17:45.933Z,3.79
2017-01-16T10:18:52.102Z,3.88
2017-01-16T10:19:58.290Z,3.76
2017-01-16T10:21:04.452Z,3.79
2017-01-16T10:22:09.672Z,3.7
2017-01-16T10:23:14.004Z,3.7
2017-01-16T10:24:20.279Z,3.64
2017-01-16T10:25:26.447Z,3.7
2017-01-16T10:26:32.614Z,3.6
2017-01-16T10:27:35.900Z,3.62
2017-01-16T10:28:41.159Z,3.6
2017-01-16T10:29:47.375Z,3.57
2017-01-16T10:30:53.535Z,3.54
2017-01-16T10:31:57.863Z,3.68
2017-01-16T10:33:04.030Z,3.76
2017-01-16T10:34:08.824Z,3.75
2017-01-16T10:35:13.024Z,3.82
2017-01-16T10:36:17.259Z,3.92
2017-01-16T10:37:21.490Z,4.06
2017-01-16T10:38:27.689Z,4.25
2017-01-16T10:39:31.957Z,4.42
2017-01-16T10:40:37.155Z,4.65
2017-01-16T10:41:42.364Z,4.75
2017-01-16T10:42:48.534Z,4.76
2017-01-16T10:43:53.784Z,4.94
2017-01-16T10:44:59.971Z,5.09
2017-01-16T10:46:05.181Z,4.98
2017-01-16T10:47:08.411Z,5.02
2017-01-16T10:48:14.623Z,4.88
2017-01-16T10:49:19.831Z,4.65
2017-01-16T10:50:24.063Z,4.57
2017-01-16T10:51:29.401Z,4.32
2017-01-16T10:52:33.606Z,4.21
2017-01-16T10:53:39.815Z,4.19
2017-01-16T10:54:45.018Z,4.14
2017-01-16T10:55:50.219Z,4.16
2017-01-16T10:56:55.474Z,4.19
2017-01-16T10:58:00.779Z,4.24
2017-01-16T10:59:05.984Z,4.34
2017-01-16T11:00:11.190Z,4.44
2017-01-16T11:01:15.434Z,4.62
2017-01-16T11:02:20.633Z,4.84
2017-01-16T11:03:23.897Z,5.01
2017-01-16T11:04:30.068Z,5.22
2017-01-16T11:05:34.307Z,5.45
2017-01-16T11:06:39.486Z,5.5
2017-01-16T11:07:45.653Z,5.59
2017-01-16T11:08:50.829Z,5.75
2017-01-16T11:09:56.997Z,5.73
2017-01-16T11:11:02.204Z,6.04
2017-01-16T11:12:08.370Z,6.14
2017-01-16T11:13:12.575Z,6.41
2017-01-16T11:14:18.739Z,6.61
2017-01-16T11:15:23.936Z,6.63
2017-01-16T11:16:30.110Z,6.41
2017-01-16T11:17:34.355Z,6.26
2017-01-16T11:18:40.525Z,6.03
2017-01-16T11:19:44.759Z,5.77
2017-01-16T11:20:48.988Z,5.71
2017-01-16T11:21:55.218Z,5.48
2017-01-16T11:23:00.393Z,5.43
2017-01-16T11:24:06.582Z,5.2
2017-01-16T11:25:12.748Z,5.2
2017-01-16T11:26:17.955Z,5.13
2017-01-16T11:27:22.162Z,5.04
2017-01-16T11:28:28.331Z,4.92
2017-01-16T11:29:31.663Z,4.91
2017-01-16T11:30:36.870Z,4.86
2017-01-16T11:31:42.045Z,4.86
2017-01-16T11:32:46.049Z,4.75
2017-01-16T11:33:51.259Z,4.64
2017-01-16T11:34:56.425Z,4.57
2017-01-16T11:36:01.645Z,4.57
2017-01-16T11:37:05.860Z,4.57
2017-01-16T11:38:11.037Z,4.61
2017-01-16T11:39:16.239Z,4.64
2017-01-16T11:40:19.516Z,4.54
2017-01-16T11:41:25.653Z,4.44
2017-01-16T11:42:31.814Z,4.46
2017-01-16T11:43:36.051Z,4.34
2017-01-16T11:44:41.364Z,4.29
2017-01-16T11:45:46.609Z,4.29
2017-01-16T11:46:52.751Z,4.28
2017-01-16T11:47:58.919Z,4.29
2017-01-16T11:49:05.089Z,4.26
2017-01-16T11:50:10.308Z,4.25
2017-01-16T11:51:16.477Z,4.24
2017-01-16T11:52:21.755Z,4.16
2017-01-16T11:53:25.990Z,4.14
2017-01-16T11:54:31.164Z,4.16
2017-01-16T11:55:37.335Z,4.01
2017-01-16T11:56:42.543Z,3.88
2017-01-16T11:57:48.720Z,3.78
2017-01-16T11:58:53.969Z,3.71
2017-01-16T12:00:00.103Z,3.64
2017-01-16T12:01:04.673Z,3.57
2017-01-16T12:02:10.904Z,3.5
2017-01-16T12:03:16.098Z,3.46
2017-01-16T12:04:21.275Z,3.27
2017-01-16T12:05:27.484Z,3.33
2017-01-16T12:06:32.642Z,3.27
2017-01-16T12:07:37.901Z,3.27
2017-01-16T12:08:44.123Z,3.2
2017-01-16T12:09:50.299Z,3.07
2017-01-16T12:10:54.518Z,3.2
2017-01-16T12:11:59.717Z,3.24
2017-01-16T12:13:05.889Z,3.25
2017-01-16T12:14:11.088Z,3.27
2017-01-16T12:15:16.270Z,3.31
2017-01-16T12:16:22.463Z,3.3
2017-01-16T12:17:26.666Z,3.25
2017-01-16T12:18:31.872Z,3.27
2017-01-16T12:19:37.081Z,3.24
2017-01-16T12:20:43.243Z,3.31
2017-01-16T12:21:48.446Z,3.27
2017-01-16T12:22:54.676Z,3.34
2017-01-16T12:23:59.871Z,3.28
2017-01-16T12:25:06.028Z,3.33
2017-01-16T12:26:11.346Z,3.25
2017-01-16T12:27:17.506Z,3.06
2017-01-16T12:28:22.706Z,3.05
2017-01-16T12:29:28.870Z,2.98
2017-01-16T12:30:35.044Z,2.91
2017-01-16T12:31:39.282Z,2.82
2017-01-16T12:32:45.463Z,2.81
2017-01-16T12:33:51.626Z,2.66
2017-01-16T12:34:54.865Z,2.74
2017-01-16T12:36:00.056Z,2.63
2017-01-16T12:37:05.232Z,2.64
2017-01-16T12:38:08.463Z,2.58
2017-01-16T12:39:14.647Z,2.58
2017-01-16T12:40:20.840Z,2.55
2017-01-16T12:41:26.014Z,2.53
2017-01-16T12:42:30.251Z,2.51
2017-01-16T12:43:36.434Z,2.49
2017-01-16T12:44:39.694Z,2.53
2017-01-16T12:45:44.915Z,2.53
2017-01-16T12:46:48.231Z,2.49
2017-01-16T12:47:54.396Z,2.58
2017-01-16T12:48:59.569Z,2.52
2017-01-16T12:50:03.765Z,2.58
2017-01-16T12:51:08.964Z,2.58
2017-01-16T12:52:15.127Z,2.49
2017-01-16T12:53:20.322Z,2.49
2017-01-16T12:54:26.459Z,2.4
2017-01-16T12:55:32.673Z,2.37
2017-01-16T12:56:34.915Z,2.23
2017-01-16T12:57:40.202Z,2.23
2017-01-16T12:58:45.430Z,2.17
2017-01-16T12:59:50.603Z,2.2
2017-01-16T13:00:55.807Z,2.22
2017-01-16T13:02:00.974Z,2.2
2017-01-16T13:03:07.138Z,2.16
2017-01-16T13:04:13.314Z,2.12
2017-01-16T13:05:18.513Z,2.1
2017-01-16T13:06:23.837Z,2.13
2017-01-16T13:07:26.805Z,2.09
2017-01-16T13:08:32.972Z,2.01
2017-01-16T13:09:38.185Z,2.06
2017-01-16T13:10:44.385Z,1.93
2017-01-16T13:11:50.534Z,1.83
2017-01-16T13:12:56.701Z,1.9
2017-01-16T13:14:02.867Z,1.8
2017-01-16T13:15:08.061Z,1.78
2017-01-16T13:16:11.311Z,1.62
2017-01-16T13:17:16.510Z,1.75
2017-01-16T13:18:22.682Z,1.73
2017-01-16T13:19:28.315Z,1.65
2017-01-16T13:20:34.495Z,1.71
2017-01-16T13:21:39.697Z,1.71
2017-01-16T13:22:43.899Z,1.6
2017-01-16T13:23:49.066Z,1.69
2017-01-16T13:24:54.271Z,1.71
2017-01-16T13:26:00.435Z,1.73
2017-01-16T13:27:05.603Z,1.76
2017-01-16T13:28:11.769Z,1.82
2017-01-16T13:29:16.937Z,1.9
2017-01-16T13:30:22.180Z,1.98
2017-01-16T13:31:28.316Z,2.04
2017-01-16T13:32:34.484Z,2.02
2017-01-16T13:33:39.664Z,2.01
2017-01-16T13:34:44.860Z,2.01
2017-01-16T13:35:48.129Z,1.97
2017-01-16T13:36:52.396Z,1.89
2017-01-16T13:37:58.598Z,1.89
2017-01-16T13:39:04.739Z,1.9
2017-01-16T13:40:10.917Z,1.8
2017-01-16T13:41:17.109Z,1.73
2017-01-16T13:42:22.277Z,1.78
2017-01-16T13:43:28.444Z,1.69
2017-01-16T13:44:34.655Z,1.72
2017-01-16T13:45:38.850Z,1.75
2017-01-16T13:46:44.060Z,1.73
2017-01-16T13:47:50.228Z,1.69
2017-01-16T13:48:56.396Z,1.79
2017-01-16T13:50:02.555Z,1.78
2017-01-16T13:51:08.721Z,1.76
2017-01-16T13:52:12.927Z,1.76
2017-01-16T13:53:17.278Z,1.61
2017-01-16T13:54:21.524Z,1.6
2017-01-16T13:55:27.687Z,1.58
2017-01-16T13:56:30.970Z,1.5
2017-01-16T13:57:37.138Z,1.42
2017-01-16T13:58:43.419Z,1.4
2017-01-16T13:59:49.595Z,1.25
2017-01-16T14:00:55.753Z,1.28
2017-01-16T14:01:59.963Z,1.24
2017-01-16T14:03:05.163Z,1.12
2017-01-16T14:04:10.367Z,1.08
2017-01-16T14:05:15.584Z,1.08
2017-01-16T14:06:21.741Z,1.08
2017-01-16T14:07:27.915Z,1.03
2017-01-16T14:08:32.154Z,0.97
2017-01-16T14:09:38.318Z,0.96
2017-01-16T14:10:41.619Z,1
2017-01-16T14:11:47.857Z,1.01
2017-01-16T14:12:54.026Z,1.03
2017-01-16T14:13:58.221Z,0.97
2017-01-16T14:15:02.452Z,0.92
2017-01-16T14:16:07.704Z,1.03
2017-01-16T14:17:10.941Z,1.01
2017-01-16T14:18:16.162Z,0.98
2017-01-16T14:19:20.380Z,0.98
2017-01-16T14:20:26.566Z,0.97
2017-01-16T14:21:30.808Z,0.94
2017-01-16T14:22:36.014Z,0.83
2017-01-16T14:23:42.183Z,0.79
2017-01-16T14:24:47.485Z,0.75
2017-01-16T14:25:49.836Z,0.72
2017-01-16T14:26:54.022Z,0.65
2017-01-16T14:28:00.188Z,0.6
2017-01-16T14:29:06.363Z,0.62
2017-01-16T14:30:11.599Z,0.42
2017-01-16T14:31:15.828Z,0.49